Hauptseite
METAR-TAF:

METAR-TAF

Flughäfen :

Kish, Iran

Breite: 26-31-36N, Länge: 053-58-54E, Höhe: 30 m

Beobachtung

Neuester Wetterbericht von vor 22 Minuten, um 09:00 UTC
Wind 10 kt aus West/Südwest
Temperatur 32°C
Luftfeuchtigkeit 67%
Luftdruck 1006 hPa
Sichtweite: 6000 m

METAR: OIBK 210900Z 25010KT 6000 NSC 32/25 Q1006

Zeit: 13:52 (09:22 UTC)

Prognose

Neuester Wetterbericht von vor 3 Stunden und 52 Minuten, um 05:30 UTC
Gültige Prognose vom 21 um 06 UTC bis 22 um 12 UTC
Wind 6 kt aus West
Sichtweite: 6000 m
Zeitweise
vom 21 um 20 UTC bis 22 um 04 UTC
Sichtweite: 3000 m
feuchter Dunst,

TAF: OIBK 210530Z 2106/2212 26006KT 6000 NSC TEMPO 2120/2204 3000 BR

Wetterbeobachtungen und Prognosen von mehr als 4000 Flughäfen (METAR und TAF Bericht).

Die verfügbaren Stationen werden durch gelbe und rote Markierungen auf der Karte dargestellt.

Führen Sie die Maus auf sie, um den Namen der Station zu sehen.

Darauf klicken, um die Beobachtung von Wetterbeobachtungen und Prognosen zu sehen.

Um die Karte zu ändern : klicken Sie auf den grünen Tasten mit einem schwarzen Kreuz Zum Vergrößern, auf den grünen Button mit einem Gedankenstrich zu verkleinern, oder auf die grünen Pfeile für benachbarte Karten.


METAR-TAF: